createdAt,value
2018-01-12T00:01:33.035Z,165.50
2018-01-12T00:04:00.724Z,204.87
2018-01-12T00:06:28.343Z,155.00
2018-01-12T00:08:56.839Z,163.03
2018-01-12T00:11:24.493Z,158.00
2018-01-12T00:13:52.079Z,191.70
2018-01-12T00:16:19.719Z,251.97
2018-01-12T00:18:47.415Z,166.57
2018-01-12T00:21:15.041Z,156.80
2018-01-12T00:23:42.631Z,146.87
2018-01-12T00:26:10.275Z,136.67
2018-01-12T00:28:37.932Z,164.87
2018-01-12T00:31:05.599Z,185.87
2018-01-12T00:33:33.256Z,136.57
2018-01-12T00:36:00.887Z,187.67
2018-01-12T00:38:28.468Z,159.03
2018-01-12T00:40:56.162Z,145.07
2018-01-12T00:43:23.804Z,194.77
2018-01-12T00:45:51.409Z,217.30
2018-01-12T00:48:18.996Z,143.07
2018-01-12T00:50:46.583Z,196.07
2018-01-12T00:53:14.207Z,190.60
2018-01-12T00:55:41.892Z,186.80
2018-01-12T00:58:09.512Z,148.93
2018-01-12T01:00:37.093Z,202.83
2018-01-12T01:03:04.679Z,194.40
2018-01-12T01:05:32.259Z,170.27
2018-01-12T01:07:59.923Z,180.53
2018-01-12T01:10:27.507Z,201.57
2018-01-12T01:12:55.101Z,213.10
2018-01-12T01:15:22.731Z,210.70
2018-01-12T01:17:50.371Z,157.53
2018-01-12T01:20:17.998Z,219.00
2018-01-12T01:22:45.606Z,181.37
2018-01-12T01:25:13.244Z,177.27
2018-01-12T01:27:40.825Z,209.37
2018-01-12T01:30:08.426Z,184.27
2018-01-12T01:32:36.039Z,177.30
2018-01-12T01:35:03.703Z,177.23
2018-01-12T01:37:31.299Z,204.73
2018-01-12T01:39:58.928Z,193.40
2018-01-12T01:42:26.596Z,163.87
2018-01-12T01:44:54.187Z,168.57
2018-01-12T01:47:21.775Z,147.63
2018-01-12T01:49:49.426Z,197.07
2018-01-12T01:52:17.007Z,190.37
2018-01-12T01:54:44.670Z,155.53
2018-01-12T01:57:12.251Z,170.13
2018-01-12T01:59:39.894Z,220.43
2018-01-12T02:02:07.604Z,174.97
2018-01-12T02:04:35.224Z,184.13
2018-01-12T02:07:02.871Z,165.03
2018-01-12T02:09:30.471Z,209.93
2018-01-12T02:11:58.085Z,175.97
2018-01-12T02:14:25.712Z,204.30
2018-01-12T02:16:53.295Z,213.30
2018-01-12T02:19:21.311Z,176.33
2018-01-12T02:21:48.890Z,186.70
2018-01-12T02:24:16.550Z,174.27
2018-01-12T02:26:44.171Z,201.43
2018-01-12T02:29:11.791Z,212.27
2018-01-12T02:31:39.371Z,193.33
2018-01-12T02:34:06.950Z,181.07
2018-01-12T02:36:34.531Z,193.00
2018-01-12T02:39:02.847Z,178.00
2018-01-12T02:41:31.340Z,171.57
2018-01-12T02:43:58.988Z,184.27
2018-01-12T02:46:26.651Z,201.53
2018-01-12T02:48:54.268Z,186.37
2018-01-12T02:51:22.891Z,172.67
2018-01-12T02:53:50.486Z,196.97
2018-01-12T02:56:18.114Z,168.27
2018-01-12T02:58:45.707Z,190.93
2018-01-12T03:01:13.343Z,193.67
2018-01-12T03:03:40.961Z,196.37
2018-01-12T03:06:09.359Z,194.87
2018-01-12T03:08:37.719Z,211.50
2018-01-12T03:11:06.088Z,209.43
2018-01-12T03:13:34.643Z,191.17
2018-01-12T03:16:03.102Z,165.47
2018-01-12T03:18:30.719Z,176.43
2018-01-12T03:20:59.231Z,212.30
2018-01-12T03:23:27.840Z,174.37
2018-01-12T03:25:56.323Z,190.50
2018-01-12T03:28:23.947Z,181.70
2018-01-12T03:30:52.432Z,157.70
2018-01-12T03:33:21.186Z,183.03
2018-01-12T03:35:48.804Z,167.30
2018-01-12T03:38:16.403Z,187.97
2018-01-12T03:40:44.705Z,161.80
2018-01-12T03:43:13.134Z,162.30
2018-01-12T03:45:41.664Z,176.50
2018-01-12T03:48:10.146Z,187.23
2018-01-12T03:50:38.619Z,180.40
2018-01-12T03:53:06.200Z,183.90
2018-01-12T03:55:33.775Z,161.17
2018-01-12T03:58:01.351Z,172.67
2018-01-12T04:00:28.936Z,154.73
2018-01-12T04:02:57.251Z,204.07
2018-01-12T04:05:24.840Z,161.23
2018-01-12T04:07:52.422Z,170.10
2018-01-12T04:10:20.058Z,187.77
2018-01-12T04:12:48.512Z,189.97
2018-01-12T04:15:16.915Z,182.07
2018-01-12T04:17:45.427Z,165.33
2018-01-12T04:20:13.902Z,154.97
2018-01-12T04:22:41.614Z,155.47
2018-01-12T04:25:09.193Z,163.50
2018-01-12T04:27:36.781Z,182.90
2018-01-12T04:30:04.467Z,188.13
2018-01-12T04:32:32.837Z,163.83
2018-01-12T04:35:01.327Z,203.77
2018-01-12T04:37:28.984Z,178.53
2018-01-12T04:39:56.660Z,186.13
2018-01-12T04:42:24.246Z,170.17
2018-01-12T04:44:51.830Z,173.40
2018-01-12T04:47:19.428Z,193.57
2018-01-12T04:49:47.959Z,185.20
2018-01-12T04:52:15.548Z,178.23
2018-01-12T04:54:43.151Z,176.63
2018-01-12T04:57:10.740Z,190.27
2018-01-12T04:59:38.345Z,188.37
2018-01-12T05:02:06.030Z,205.80
2018-01-12T05:04:33.698Z,187.30
2018-01-12T05:07:01.284Z,199.80
2018-01-12T05:09:28.971Z,191.87
2018-01-12T05:11:56.646Z,186.50
2018-01-12T05:14:24.229Z,213.90
2018-01-12T05:16:51.812Z,201.63
2018-01-12T05:19:19.410Z,207.60
2018-01-12T05:21:47.031Z,212.37
2018-01-12T05:24:15.525Z,159.53
2018-01-12T05:26:43.943Z,180.20
2018-01-12T05:29:12.309Z,176.30
2018-01-12T05:31:40.778Z,154.00
2018-01-12T05:34:08.380Z,176.60
2018-01-12T05:36:36.883Z,171.60
2018-01-12T05:39:04.460Z,160.90
2018-01-12T05:41:32.088Z,210.87
2018-01-12T05:43:59.669Z,168.50
2018-01-12T05:46:28.031Z,178.73
2018-01-12T05:48:56.452Z,186.20
2018-01-12T05:51:24.035Z,217.47
2018-01-12T05:53:51.768Z,193.13
2018-01-12T05:56:19.380Z,184.60
2018-01-12T05:58:47.862Z,182.80
2018-01-12T06:01:27.235Z,154.00
2018-01-12T06:04:06.547Z,147.80
2018-01-12T06:06:34.162Z,128.03
2018-01-12T06:09:01.743Z,128.17
2018-01-12T06:11:29.335Z,132.23
2018-01-12T06:13:57.616Z,153.13
2018-01-12T06:16:25.199Z,134.73
2018-01-12T06:18:53.723Z,106.83
2018-01-12T06:21:22.117Z,96.50
2018-01-12T06:23:50.490Z,109.23
2018-01-12T06:26:18.747Z,127.17
2018-01-12T06:28:46.338Z,109.67
2018-01-12T06:31:14.870Z,97.73
2018-01-12T06:33:43.356Z,98.03
2018-01-12T06:36:10.935Z,114.93
2018-01-12T06:38:39.442Z,113.27
2018-01-12T06:41:07.727Z,107.70
2018-01-12T06:43:35.391Z,75.10
2018-01-12T06:46:02.970Z,106.37
2018-01-12T06:48:30.585Z,95.27
2018-01-12T06:50:59.110Z,98.33
2018-01-12T06:53:27.479Z,97.20
2018-01-12T06:55:55.982Z,116.67
2018-01-12T06:58:24.322Z,93.17
2018-01-12T07:00:51.948Z,98.57
2018-01-12T07:03:19.530Z,104.43
2018-01-12T07:05:47.139Z,90.20
2018-01-12T07:08:14.716Z,104.20
2018-01-12T07:10:43.178Z,91.50
2018-01-12T07:13:11.743Z,98.87
2018-01-12T07:15:39.360Z,85.60
2018-01-12T07:18:07.055Z,84.23
2018-01-12T07:20:46.454Z,78.67
2018-01-12T07:23:26.027Z,79.73
2018-01-12T07:25:53.647Z,67.63
2018-01-12T07:28:21.231Z,80.77
2018-01-12T07:30:48.886Z,71.20
2018-01-12T07:33:17.175Z,74.67
2018-01-12T07:35:45.748Z,81.80
2018-01-12T07:38:13.414Z,75.20
2018-01-12T07:40:41.074Z,65.97
2018-01-12T07:43:08.660Z,74.13
2018-01-12T07:45:36.256Z,96.17
2018-01-12T07:48:03.863Z,86.30
2018-01-12T07:50:32.246Z,87.63
2018-01-12T07:53:05.600Z,91.27
2018-01-12T07:55:33.183Z,80.63
2018-01-12T07:58:00.759Z,80.53
2018-01-12T08:00:34.046Z,84.27
2018-01-12T08:03:04.448Z,82.27
2018-01-12T08:05:32.025Z,88.83
2018-01-12T08:07:59.602Z,66.47
2018-01-12T08:10:27.179Z,67.67
2018-01-12T08:12:54.767Z,87.13
2018-01-12T08:15:22.392Z,68.13
2018-01-12T08:17:49.971Z,66.10
2018-01-12T08:20:17.537Z,77.57
2018-01-12T08:22:45.112Z,77.37
2018-01-12T08:25:12.729Z,72.13
2018-01-12T08:27:40.302Z,77.53
2018-01-12T08:30:07.905Z,71.50
2018-01-12T08:32:35.482Z,75.17
2018-01-12T08:35:03.055Z,63.40
2018-01-12T08:37:33.330Z,70.83
2018-01-12T08:40:00.927Z,66.57
2018-01-12T08:42:28.570Z,69.33
2018-01-12T08:44:56.226Z,77.83
2018-01-12T08:47:23.838Z,88.97
2018-01-12T08:49:51.421Z,80.03
2018-01-12T08:52:19.150Z,77.87
2018-01-12T08:54:46.729Z,80.10
2018-01-12T08:57:14.345Z,79.73
2018-01-12T08:59:41.973Z,63.53
2018-01-12T09:02:09.553Z,85.00
2018-01-12T09:04:37.149Z,83.77
2018-01-12T09:07:05.477Z,77.00
2018-01-12T09:09:33.544Z,76.27
2018-01-12T09:12:01.506Z,83.63
2018-01-12T09:14:42.589Z,81.30
2018-01-12T09:17:10.563Z,75.47
2018-01-12T09:19:49.184Z,72.50
2018-01-12T09:22:29.454Z,78.80
2018-01-12T09:24:57.642Z,75.20
2018-01-12T09:27:25.817Z,79.03
2018-01-12T09:30:11.770Z,93.37
2018-01-12T09:32:39.387Z,75.63
2018-01-12T09:35:07.006Z,78.83
2018-01-12T09:37:40.578Z,75.37
2018-01-12T09:40:22.077Z,86.37
2018-01-12T09:42:49.802Z,90.93
2018-01-12T09:45:17.457Z,81.10
2018-01-12T09:47:56.959Z,84.20
2018-01-12T09:50:24.548Z,86.30
2018-01-12T09:52:52.235Z,69.07
2018-01-12T09:55:19.921Z,80.10
2018-01-12T09:57:47.513Z,80.20
2018-01-12T10:03:21.710Z,91.17
2018-01-12T10:05:54.260Z,89.57
2018-01-12T10:08:28.822Z,85.13
2018-01-12T10:10:56.530Z,86.33
2018-01-12T10:13:25.132Z,74.10
2018-01-12T10:15:52.718Z,67.30
2018-01-12T10:21:25.261Z,81.73
2018-01-12T10:23:52.840Z,75.47
2018-01-12T10:26:20.498Z,75.70
2018-01-12T10:28:59.970Z,75.00
2018-01-12T10:31:33.270Z,80.73
2018-01-12T10:34:07.807Z,80.23
2018-01-12T10:36:39.950Z,80.93
2018-01-12T10:39:19.598Z,77.60
2018-01-12T10:41:59.098Z,74.03
2018-01-12T10:44:26.902Z,71.77
2018-01-12T10:47:04.134Z,73.50
2018-01-12T10:49:34.678Z,81.23
2018-01-12T10:52:09.610Z,72.17
2018-01-12T10:54:37.401Z,69.47
2018-01-12T10:57:06.335Z,88.18
2018-01-12T10:59:34.955Z,86.80
2018-01-12T11:02:03.436Z,77.83
2018-01-12T11:04:31.112Z,84.03
2018-01-12T11:06:58.823Z,86.83
2018-01-12T11:09:26.451Z,92.33
2018-01-12T11:11:54.068Z,86.77
2018-01-12T11:14:21.903Z,77.90
2018-01-12T11:16:49.575Z,87.77
2018-01-12T11:19:17.195Z,94.03
2018-01-12T11:21:44.812Z,97.20
2018-01-12T11:24:12.387Z,71.30
2018-01-12T11:26:40.007Z,88.83
2018-01-12T11:29:09.966Z,86.23
2018-01-12T11:31:37.598Z,76.00
2018-01-12T11:34:05.182Z,69.87
2018-01-12T11:36:32.788Z,80.03
2018-01-12T11:39:21.012Z,71.33
2018-01-12T11:41:48.731Z,78.43
2018-01-12T11:44:16.399Z,73.97
2018-01-12T11:46:44.003Z,77.23
2018-01-12T11:49:11.609Z,77.80
2018-01-12T11:51:39.265Z,88.03
2018-01-12T11:54:06.899Z,80.73
2018-01-12T11:56:34.477Z,87.37
2018-01-12T11:59:02.185Z,71.83
2018-01-12T12:01:29.776Z,90.63
2018-01-12T12:03:57.382Z,81.10
2018-01-12T12:06:24.970Z,72.83
2018-01-12T12:08:52.573Z,73.30
2018-01-12T12:11:20.188Z,61.77
2018-01-12T12:13:47.772Z,92.37
2018-01-12T12:16:15.381Z,80.63
2018-01-12T12:18:42.963Z,85.87
2018-01-12T12:21:10.625Z,69.47
2018-01-12T12:23:38.243Z,81.23
2018-01-12T12:26:05.856Z,72.57
2018-01-12T12:28:33.466Z,68.53
2018-01-12T12:31:01.045Z,62.83
2018-01-12T12:33:29.449Z,67.50
2018-01-12T12:35:57.961Z,73.37
2018-01-12T12:38:25.547Z,68.27
2018-01-12T12:40:53.147Z,70.33
2018-01-12T12:43:20.723Z,61.47
2018-01-12T12:45:48.311Z,65.53
2018-01-12T12:48:15.886Z,76.87
2018-01-12T12:50:43.462Z,66.17
2018-01-12T12:53:11.041Z,71.33
2018-01-12T12:55:38.653Z,80.33
2018-01-12T12:58:06.230Z,75.57
2018-01-12T13:00:33.838Z,69.60
2018-01-12T13:03:01.466Z,72.00
2018-01-12T13:05:29.060Z,84.27
2018-01-12T13:07:56.650Z,75.03
2018-01-12T13:10:24.252Z,78.10
2018-01-12T13:12:51.883Z,71.93
2018-01-12T13:15:19.506Z,72.53
2018-01-12T13:17:47.124Z,82.47
2018-01-12T13:20:14.736Z,64.73
2018-01-12T13:22:42.394Z,82.80
2018-01-12T13:25:10.956Z,68.40
2018-01-12T13:27:38.542Z,76.13
2018-01-12T13:30:12.206Z,85.33
2018-01-12T13:32:39.779Z,70.37
2018-01-12T13:35:08.130Z,76.03
2018-01-12T13:37:35.715Z,84.23
2018-01-12T13:40:03.344Z,85.10
2018-01-12T13:42:31.070Z,93.97
2018-01-12T13:44:58.646Z,80.07
2018-01-12T13:47:26.304Z,86.60
2018-01-12T13:49:53.892Z,86.10
2018-01-12T13:52:21.495Z,90.37
2018-01-12T13:54:49.066Z,93.28
2018-01-12T13:57:17.555Z,80.07
2018-01-12T13:59:46.026Z,83.73
2018-01-12T14:02:13.607Z,71.73
2018-01-12T14:04:41.178Z,91.93
2018-01-12T14:07:08.754Z,87.53
2018-01-12T14:09:36.391Z,93.13
2018-01-12T14:12:04.055Z,86.30
2018-01-12T14:14:31.719Z,71.30
2018-01-12T14:16:59.301Z,85.80
2018-01-12T14:19:26.903Z,82.27
2018-01-12T14:21:54.483Z,89.47
2018-01-12T14:24:22.062Z,87.10
2018-01-12T14:26:49.691Z,88.07
2018-01-12T14:29:17.386Z,86.03
2018-01-12T14:31:45.004Z,100.23
2018-01-12T14:34:12.583Z,83.20
2018-01-12T14:36:40.153Z,96.43
2018-01-12T14:39:07.743Z,97.73
2018-01-12T14:41:35.362Z,101.13
2018-01-12T14:44:02.942Z,93.53
2018-01-12T14:46:30.589Z,92.10
2018-01-12T14:48:58.164Z,89.43
2018-01-12T14:51:25.818Z,108.43
2018-01-12T14:53:53.502Z,92.40
2018-01-12T14:56:21.086Z,106.23
2018-01-12T14:58:48.660Z,90.87
2018-01-12T15:01:16.280Z,88.40
2018-01-12T15:03:44.666Z,80.50
2018-01-12T15:06:13.033Z,98.00
2018-01-12T15:08:41.490Z,93.60
2018-01-12T15:11:09.062Z,105.40
2018-01-12T15:13:36.722Z,100.83
2018-01-12T15:16:04.298Z,102.47
2018-01-12T15:18:31.874Z,99.10
2018-01-12T15:20:59.455Z,117.87
2018-01-12T15:23:27.051Z,108.63
2018-01-12T15:25:54.639Z,123.23
2018-01-12T15:28:22.374Z,115.10
2018-01-12T15:30:49.958Z,111.93
2018-01-12T15:33:17.654Z,116.90
2018-01-12T15:35:45.226Z,106.93
2018-01-12T15:38:12.804Z,102.47
2018-01-12T15:40:40.390Z,108.13
2018-01-12T15:43:07.963Z,99.23
2018-01-12T15:45:35.542Z,120.07
2018-01-12T15:48:03.187Z,112.47
2018-01-12T15:50:30.882Z,100.53
2018-01-12T15:52:58.481Z,90.93
2018-01-12T15:55:26.225Z,101.50
2018-01-12T15:57:53.883Z,105.47
2018-01-12T16:00:21.461Z,107.87
2018-01-12T16:02:49.040Z,108.17
2018-01-12T16:05:16.683Z,99.07
2018-01-12T16:07:44.310Z,112.33
2018-01-12T16:10:14.604Z,118.90
2018-01-12T16:12:42.226Z,97.63
2018-01-12T16:15:09.863Z,119.23
2018-01-12T16:17:38.451Z,113.50
2018-01-12T16:20:06.118Z,104.50
2018-01-12T16:22:33.771Z,105.90
2018-01-12T16:25:01.445Z,117.73
2018-01-12T16:27:29.105Z,107.13
2018-01-12T16:29:57.385Z,103.00
2018-01-12T16:32:24.967Z,113.30
2018-01-12T16:34:52.545Z,119.33
2018-01-12T16:37:21.192Z,103.00
2018-01-12T16:39:48.770Z,103.77
2018-01-12T16:42:16.347Z,88.40
2018-01-12T16:44:43.927Z,103.03
2018-01-12T16:47:11.513Z,115.37
2018-01-12T16:49:39.104Z,113.50
2018-01-12T16:52:06.758Z,113.70
2018-01-12T16:54:34.341Z,96.00
2018-01-12T16:57:01.946Z,99.70
2018-01-12T16:59:29.525Z,104.37
2018-01-12T17:01:57.098Z,110.27
2018-01-12T17:04:24.734Z,94.77
2018-01-12T17:06:52.314Z,103.47
2018-01-12T17:09:19.986Z,102.67
2018-01-12T17:11:47.562Z,93.00
2018-01-12T17:14:15.134Z,98.33
2018-01-12T17:16:42.707Z,99.13
2018-01-12T17:19:10.279Z,99.47
2018-01-12T17:21:37.854Z,89.70
2018-01-12T17:24:05.443Z,92.13
2018-01-12T17:26:33.013Z,97.07
2018-01-12T17:29:00.594Z,101.43
2018-01-12T17:31:28.207Z,88.07
2018-01-12T17:33:55.796Z,101.23
2018-01-12T17:36:23.375Z,97.33
2018-01-12T17:38:51.175Z,88.93
2018-01-12T17:41:18.755Z,100.83
2018-01-12T17:43:46.339Z,101.50
2018-01-12T17:46:14.018Z,118.03
2018-01-12T17:48:42.518Z,106.93
2018-01-12T17:51:10.102Z,97.50
2018-01-12T17:53:37.718Z,102.20
2018-01-12T17:56:05.336Z,103.17
2018-01-12T17:58:33.093Z,117.43
2018-01-12T18:01:00.679Z,130.83
2018-01-12T18:03:28.378Z,115.20
2018-01-12T18:05:55.981Z,87.27
2018-01-12T18:08:23.559Z,115.23
2018-01-12T18:10:51.149Z,101.70
2018-01-12T18:13:18.739Z,106.43
2018-01-12T18:15:46.324Z,107.13
2018-01-12T18:18:14.014Z,106.53
2018-01-12T18:20:41.656Z,104.80
2018-01-12T18:23:09.238Z,92.17
2018-01-12T18:25:36.899Z,114.47
2018-01-12T18:28:04.520Z,111.63
2018-01-12T18:30:32.118Z,96.60
2018-01-12T18:32:59.695Z,97.23
2018-01-12T18:35:27.279Z,114.80
2018-01-12T18:37:54.930Z,118.20
2018-01-12T18:40:22.525Z,124.00
2018-01-12T18:42:50.163Z,116.57
2018-01-12T18:45:17.818Z,106.67
2018-01-12T18:47:45.491Z,103.33
2018-01-12T18:50:13.147Z,108.47
2018-01-12T18:52:40.810Z,101.63
2018-01-12T18:55:09.465Z,116.17
2018-01-12T18:57:37.106Z,109.37
2018-01-12T19:00:05.699Z,124.20
2018-01-12T19:02:34.330Z,133.87
2018-01-12T19:05:01.923Z,117.03
2018-01-12T19:07:29.602Z,101.93
2018-01-12T19:09:57.186Z,119.83
2018-01-12T19:12:25.712Z,120.43
2018-01-12T19:14:54.490Z,119.53
2018-01-12T19:17:22.084Z,110.20
2018-01-12T19:19:49.711Z,123.23
2018-01-12T19:22:17.359Z,126.20
2018-01-12T19:24:45.088Z,101.53
2018-01-12T19:27:12.680Z,131.13
2018-01-12T19:29:40.363Z,106.47
2018-01-12T19:32:08.026Z,126.97
2018-01-12T19:34:35.692Z,108.27
2018-01-12T19:37:03.350Z,97.10
2018-01-12T19:39:31.015Z,104.97
2018-01-12T19:41:58.618Z,116.60
2018-01-12T19:44:26.198Z,121.37
2018-01-12T19:46:53.878Z,106.57
2018-01-12T19:49:21.718Z,102.77
2018-01-12T19:51:49.326Z,104.47
2018-01-12T19:54:16.906Z,111.73
2018-01-12T19:56:44.552Z,107.10
2018-01-12T19:59:12.238Z,110.80
2018-01-12T20:01:39.826Z,115.27
2018-01-12T20:04:08.384Z,110.37
2018-01-12T20:06:36.015Z,107.80
2018-01-12T20:09:04.336Z,106.70
2018-01-12T20:11:32.646Z,106.03
2018-01-12T20:14:01.057Z,124.87
2018-01-12T20:16:28.691Z,117.47
2018-01-12T20:18:56.274Z,132.83
2018-01-12T20:21:23.858Z,131.63
2018-01-12T20:23:51.439Z,129.63
2018-01-12T20:26:19.018Z,129.53
2018-01-12T20:28:46.661Z,128.53
2018-01-12T20:31:14.241Z,130.80
2018-01-12T20:33:41.822Z,141.03
2018-01-12T20:36:09.568Z,126.07
2018-01-12T20:38:37.146Z,124.13
2018-01-12T20:41:04.731Z,126.50
2018-01-12T20:43:32.314Z,132.93
2018-01-12T20:45:59.938Z,137.30
2018-01-12T20:48:27.526Z,138.07
2018-01-12T20:50:55.105Z,161.43
2018-01-12T20:53:22.782Z,132.37
2018-01-12T20:55:50.405Z,142.43
2018-01-12T20:58:18.066Z,122.67
2018-01-12T21:00:45.683Z,159.27
2018-01-12T21:03:13.334Z,135.27
2018-01-12T21:05:40.923Z,165.30
2018-01-12T21:08:08.543Z,133.33
2018-01-12T21:10:36.152Z,144.70
2018-01-12T21:13:04.021Z,131.13
2018-01-12T21:15:31.598Z,144.77
2018-01-12T21:17:59.178Z,141.23
2018-01-12T21:20:26.846Z,149.80
2018-01-12T21:22:54.422Z,149.00
2018-01-12T21:25:22.027Z,167.50
2018-01-12T21:27:49.724Z,151.77
2018-01-12T21:30:17.420Z,145.57
2018-01-12T21:32:45.047Z,150.87
2018-01-12T21:35:12.631Z,150.90
2018-01-12T21:37:40.271Z,151.17
2018-01-12T21:40:07.902Z,148.57
2018-01-12T21:42:35.482Z,143.07
2018-01-12T21:45:03.874Z,146.53
2018-01-12T21:47:32.356Z,126.90
2018-01-12T21:50:00.710Z,142.37
2018-01-12T21:52:28.366Z,144.00
2018-01-12T21:54:56.031Z,144.00
2018-01-12T21:57:23.702Z,131.93
2018-01-12T21:59:51.383Z,149.37
2018-01-12T22:02:19.018Z,146.03
2018-01-12T22:04:46.715Z,145.87
2018-01-12T22:07:14.379Z,134.30
2018-01-12T22:09:42.466Z,131.20
2018-01-12T22:12:11.102Z,166.53
2018-01-12T22:14:38.684Z,151.77
2018-01-12T22:17:06.323Z,153.77
2018-01-12T22:19:34.027Z,127.43
2018-01-12T22:22:01.657Z,142.30
2018-01-12T22:24:29.350Z,143.70
2018-01-12T22:26:56.943Z,129.60
2018-01-12T22:29:24.542Z,157.60
2018-01-12T22:31:52.130Z,142.50
2018-01-12T22:34:19.778Z,152.07
2018-01-12T22:36:47.362Z,128.07
2018-01-12T22:39:15.023Z,135.90
2018-01-12T22:41:42.601Z,167.07
2018-01-12T22:44:10.241Z,168.23
2018-01-12T22:46:38.016Z,130.40
2018-01-12T22:49:06.194Z,149.70
2018-01-12T22:51:33.774Z,159.90
2018-01-12T22:54:01.406Z,144.40
2018-01-12T22:56:29.155Z,122.63
2018-01-12T22:58:56.886Z,136.77
2018-01-12T23:01:24.499Z,133.10
2018-01-12T23:03:52.158Z,143.90
2018-01-12T23:06:19.826Z,138.10
2018-01-12T23:08:47.458Z,127.10
2018-01-12T23:11:15.149Z,136.57
2018-01-12T23:13:42.773Z,144.17
2018-01-12T23:16:10.358Z,131.27
2018-01-12T23:18:38.034Z,136.33
2018-01-12T23:21:05.622Z,132.33
2018-01-12T23:23:33.234Z,126.90
2018-01-12T23:26:00.922Z,137.33
2018-01-12T23:28:28.555Z,121.57
2018-01-12T23:30:56.266Z,132.73
2018-01-12T23:33:23.937Z,130.83
2018-01-12T23:35:51.546Z,130.40
2018-01-12T23:38:19.238Z,117.87
2018-01-12T23:40:47.001Z,121.63
2018-01-12T23:43:14.614Z,122.73
2018-01-12T23:45:42.241Z,130.53
2018-01-12T23:48:09.823Z,130.17
2018-01-12T23:50:38.189Z,130.70
2018-01-12T23:53:05.775Z,115.20
2018-01-12T23:55:33.353Z,111.07
2018-01-12T23:58:00.938Z,117.23
